Time;durP1;ratioP1;P1;durP2;ratioP2;P2;SDS_P1;SDS_P2;PMS_P1;PMS_P2;Temp;Humidity;BMP_temperature;BMP_pressure;BME280_temperature;BME280_humidity;BME280_pressure;Samples;Min_cycle;Max_cycle;Signal;HPM_P1;HPM_P2
2022/01/20 00:00:40;;;;;;;;;18.67;18.00;;;;;7.73;82.91;102315.88;5076444;27;45574;-83
2022/01/20 00:03:12;;;;;;;;;30.67;24.00;;;;;8.00;83.48;102365.78;5077783;27;46154;-83
2022/01/20 00:06:31;;;;;;;;;24.67;24.67;;;;;7.96;84.10;102368.16;5077904;27;45369;-84
2022/01/20 00:08:37;;;;;;;;;22.00;22.00;;;;;7.93;83.70;102378.56;5077414;28;45302;-83
2022/01/20 00:27:29;;;;;;;;;27.33;21.33;;;;;7.62;83.82;102376.84;5077334;28;45461;-83
2022/01/20 00:33:15;;;;;;;;;22.33;18.33;;;;;7.62;83.96;102361.88;5077401;27;45558;-83
2022/01/20 00:35:30;;;;;;;;;27.67;23.67;;;;;7.93;84.12;102397.97;5077015;27;45468;-83
2022/01/20 00:37:55;;;;;;;;;29.00;24.33;;;;;7.29;84.07;102295.78;5077511;27;45226;-83
2022/01/20 00:40:23;;;;;;;;;28.00;24.00;;;;;7.78;84.01;102378.59;5077156;27;45574;-83
2022/01/20 00:42:49;;;;;;;;;31.67;24.67;;;;;7.51;84.20;102334.88;5077478;27;45402;-83
2022/01/20 00:45:15;;;;;;;;;25.67;23.33;;;;;7.31;83.94;102304.72;5076691;27;46377;-83
2022/01/20 00:47:40;;;;;;;;;26.33;21.67;;;;;7.31;83.33;102312.63;5077254;27;45386;-83
2022/01/20 00:50:09;;;;;;;;;30.67;26.00;;;;;7.49;83.59;102344.44;5074814;28;45419;-84
2022/01/20 00:52:35;;;;;;;;;25.33;23.00;;;;;7.46;83.47;102338.09;5075871;28;45276;-83
2022/01/20 00:55:00;;;;;;;;;17.00;11.67;;;;;7.81;83.31;102399.94;5076698;27;45598;-84
2022/01/20 00:57:26;;;;;;;;;26.00;20.67;;;;;7.20;83.36;102316.34;5075636;28;45967;-83
2022/01/20 00:59:52;;;;;;;;;23.33;21.00;;;;;7.57;83.70;102384.50;5075431;28;45460;-83
2022/01/20 01:02:17;;;;;;;;;24.00;23.33;;;;;7.40;83.53;102359.75;5075778;28;45181;-83
2022/01/20 01:04:43;;;;;;;;;34.33;28.00;;;;;7.56;83.27;102377.38;5076780;28;45442;-83
2022/01/20 01:07:38;;;;;;;;;27.00;22.00;;;;;7.65;83.75;102382.28;5075442;28;45602;-83
2022/01/20 01:10:04;;;;;;;;;26.00;24.00;;;;;6.99;83.15;102294.91;5076584;27;45346;-83
2022/01/20 01:12:44;;;;;;;;;20.33;17.67;;;;;7.68;83.43;102414.19;5075261;28;45344;-83
2022/01/20 01:15:17;;;;;;;;;23.00;20.33;;;;;7.58;83.31;102395.97;5075265;28;48207;-83
2022/01/20 01:20:28;;;;;;;;;30.33;21.67;;;;;7.44;83.41;102379.31;5076489;28;45387;-83
2022/01/20 01:22:54;;;;;;;;;24.67;24.67;;;;;7.44;83.17;102385.53;5075100;28;45624;-83
2022/01/20 01:25:20;;;;;;;;;27.00;22.00;;;;;6.74;83.01;102296.13;5075961;27;45381;-83
2022/01/20 01:27:46;;;;;;;;;26.00;19.33;;;;;7.29;83.39;102389.91;5074648;28;46230;-83
2022/01/20 01:32:57;;;;;;;;;21.67;21.67;;;;;7.32;83.43;102427.06;5076327;28;45363;-83
2022/01/20 01:35:25;;;;;;;;;21.33;18.67;;;;;7.25;83.52;102412.56;5074506;28;47732;-83
2022/01/20 01:40:35;;;;;;;;;20.00;15.67;;;;;7.33;83.40;102450.00;5076206;27;45347;-84
2022/01/20 01:43:06;;;;;;;;;22.33;19.67;;;;;6.96;83.45;102385.38;5074587;28;45355;-83
2022/01/20 01:45:37;;;;;;;;;18.33;16.00;;;;;7.31;83.40;102456.91;5075873;27;45339;-83
2022/01/20 01:48:06;;;;;;;;;17.67;17.00;;;;;6.95;82.34;102402.00;5074714;28;45827;-83
2022/01/20 01:50:33;;;;;;;;;19.00;16.67;;;;;6.96;82.75;102398.56;5076134;27;45297;-83
2022/01/20 01:53:02;;;;;;;;;18.33;14.00;;;;;6.83;83.11;102388.97;5076184;28;45366;-83
2022/01/20 01:55:29;;;;;;;;;18.33;16.00;;;;;7.17;82.92;102462.28;5091255;27;47683;-83
2022/01/20 01:57:54;;;;;;;;;15.67;13.67;;;;;6.58;82.98;102385.66;5075469;27;45261;-83
2022/01/20 02:00:20;;;;;;;;;18.33;16.33;;;;;6.40;83.02;102361.69;5074519;28;45485;-83
2022/01/20 02:02:45;;;;;;;;;17.33;13.00;;;;;6.77;82.49;102438.72;5091689;27;45595;-83
2022/01/20 02:05:15;;;;;;;;;7.67;3.00;;;;;6.37;83.04;102365.09;5074226;28;46908;-83
2022/01/20 02:08:23;;;;;;;;;15.67;11.67;;;;;6.79;82.74;102447.66;5055618;28;45485;-83
2022/01/20 02:18:57;;;;;;;;;17.00;14.33;;;;;6.77;81.99;102449.28;5055754;28;45551;-83
2022/01/20 02:21:22;;;;;;;;;14.00;13.00;;;;;6.42;82.51;102394.38;5055581;28;45827;-83
2022/01/20 02:23:48;;;;;;;;;16.67;15.67;;;;;6.50;82.09;102417.75;5071367;28;45638;-83
2022/01/20 02:26:14;;;;;;;;;16.33;13.00;;;;;6.55;82.37;102431.22;5055173;28;45502;-83
2022/01/20 02:28:39;;;;;;;;;20.33;15.00;;;;;6.49;81.95;102421.19;5053933;28;45334;-83
2022/01/20 02:31:06;;;;;;;;;14.33;13.33;;;;;6.90;82.15;102497.53;5086194;27;45513;-83
2022/01/20 02:33:32;;;;;;;;;15.00;11.00;;;;;6.21;81.70;102384.28;5074591;27;45465;-83
2022/01/20 02:36:04;;;;;;;;;16.00;12.33;;;;;6.80;81.70;102504.88;5074042;27;47348;-83
2022/01/20 02:38:44;;;;;;;;;16.33;13.00;;;;;6.71;81.74;102512.22;5074050;28;46001;-83
2022/01/20 02:46:39;;;;;;;;;12.67;12.67;;;;;6.41;81.52;102472.53;5075514;28;45499;-83
2022/01/20 02:49:07;;;;;;;;;13.33;11.00;;;;;6.20;81.10;102423.72;5074167;28;45189;-83
2022/01/20 02:51:33;;;;;;;;;12.00;11.00;;;;;6.34;81.09;102439.63;5074158;28;45390;-83
2022/01/20 02:53:58;;;;;;;;;16.33;13.00;;;;;6.35;80.59;102453.69;5073934;28;45791;-83
2022/01/20 02:56:24;;;;;;;;;12.00;11.00;;;;;6.53;80.72;102491.75;5074046;28;47921;-83
2022/01/20 02:58:49;;;;;;;;;11.67;10.00;;;;;5.56;80.66;102339.72;5073948;28;45403;-83
2022/01/20 03:01:15;;;;;;;;;12.00;11.00;;;;;6.48;80.77;102485.31;5075427;27;45853;-83
2022/01/20 03:03:40;;;;;;;;;11.00;10.00;;;;;6.28;79.89;102456.75;5075438;27;45514;-83
2022/01/20 03:06:06;;;;;;;;;10.67;9.33;;;;;5.95;80.55;102385.22;5075282;27;45401;-83
2022/01/20 03:08:31;;;;;;;;;11.00;7.00;;;;;5.98;80.08;102396.00;5073262;28;45506;-83
2022/01/20 03:10:57;;;;;;;;;12.00;10.67;;;;;5.64;79.91;102343.78;5074126;28;45338;-82
2022/01/20 03:13:22;;;;;;;;;10.00;10.00;;;;;5.79;79.02;102372.78;5076524;27;45329;-83
2022/01/20 03:15:48;;;;;;;;;12.67;8.00;;;;;5.87;79.54;102391.75;5077244;28;48353;-83
2022/01/20 03:18:13;;;;;;;;;8.00;7.00;;;;;5.91;79.12;102396.41;5077092;28;45492;-83
2022/01/20 03:20:40;;;;;;;;;12.00;10.00;;;;;5.98;79.22;102414.47;5077284;28;45891;-83
2022/01/20 03:23:05;;;;;;;;;11.00;7.00;;;;;6.12;79.45;102444.34;5077226;28;45334;-83
2022/01/20 03:25:31;;;;;;;;;7.33;7.00;;;;;6.18;78.81;102450.88;5076887;28;48120;-83
2022/01/20 03:27:57;;;;;;;;;6.33;6.33;;;;;6.23;78.68;102482.81;5078642;27;45322;-83
2022/01/20 03:30:24;;;;;;;;;9.33;9.33;;;;;5.54;78.51;102362.38;5094328;27;45409;-83
2022/01/20 03:32:50;;;;;;;;;8.67;8.67;;;;;5.91;79.04;102431.53;5077165;28;45513;-83
2022/01/20 03:35:16;;;;;;;;;7.33;7.00;;;;;6.16;78.43;102472.66;5078083;27;45429;-83
2022/01/20 03:37:41;;;;;;;;;11.00;6.00;;;;;6.15;78.13;102471.78;5078111;28;45399;-83
2022/01/20 03:40:08;;;;;;;;;7.33;5.33;;;;;6.35;78.45;102517.84;5077381;28;45424;-83
2022/01/20 03:42:34;;;;;;;;;8.00;5.00;;;;;6.17;78.16;102480.72;5076910;28;45240;-83
2022/01/20 03:45:00;;;;;;;;;12.33;7.67;;;;;5.93;77.81;102432.53;5078248;27;45495;-83
2022/01/20 03:47:26;;;;;;;;;8.67;7.00;;;;;6.01;77.39;102441.88;5076612;28;45657;-83
2022/01/20 03:52:24;;;;;;;;;7.00;7.00;;;;;6.16;77.95;102470.03;5077933;27;45262;-83
2022/01/20 03:54:50;;;;;;;;;8.00;5.00;;;;;5.76;77.22;102406.84;5078071;28;46330;-83
2022/01/20 03:57:15;;;;;;;;;9.33;6.00;;;;;6.06;76.42;102450.13;5078021;27;45241;-83
2022/01/20 03:59:40;;;;;;;;;6.00;5.00;;;;;6.12;77.06;102466.31;5076556;28;45297;-83
2022/01/20 04:02:06;;;;;;;;;8.33;5.00;;;;;6.39;76.55;102518.97;5076842;28;45494;-83
2022/01/20 04:04:32;;;;;;;;;10.00;6.00;;;;;5.78;76.90;102414.03;5077645;27;45444;-83
2022/01/20 04:06:57;;;;;;;;;5.00;3.00;;;;;5.98;76.65;102453.97;5077793;27;45291;-83
2022/01/20 04:09:22;;;;;;;;;11.00;5.67;;;;;6.49;76.69;102533.66;5076653;28;45304;-83
2022/01/20 04:11:49;;;;;;;;;11.00;6.00;;;;;6.51;77.15;102542.56;5076719;28;45693;-83
2022/01/20 04:14:14;;;;;;;;;6.33;5.67;;;;;6.12;77.12;102474.22;5076449;28;47402;-83
2022/01/20 04:17:06;;;;;;;;;6.67;5.00;;;;;6.55;76.97;102549.88;5076132;28;45444;-83
2022/01/20 04:19:32;;;;;;;;;8.00;6.00;;;;;6.41;76.94;102535.78;5077587;28;45296;-82
2022/01/20 04:21:58;;;;;;;;;6.33;6.00;;;;;6.23;76.51;102508.25;5076019;28;45676;-83
2022/01/20 04:24:23;;;;;;;;;7.33;6.00;;;;;6.34;76.51;102538.84;5076203;28;47044;-83
2022/01/20 04:26:49;;;;;;;;;6.67;5.67;;;;;6.15;77.32;102513.94;5076132;28;45370;-83
2022/01/20 04:29:16;;;;;;;;;10.33;6.00;;;;;6.38;76.89;102540.88;5076233;28;45452;-83
2022/01/20 04:31:42;;;;;;;;;6.00;6.00;;;;;6.50;77.08;102560.13;5077689;27;45603;-83
2022/01/20 04:34:09;;;;;;;;;9.00;7.00;;;;;6.53;76.84;102559.44;5075946;28;48461;-83
2022/01/20 04:36:38;;;;;;;;;6.00;6.00;;;;;6.08;76.66;102476.56;5077009;27;45216;-82
2022/01/20 04:39:07;;;;;;;;;12.00;7.67;;;;;6.46;77.45;102568.66;5076353;28;45373;-82
2022/01/20 04:41:33;;;;;;;;;11.67;6.00;;;;;6.00;77.06;102478.69;5077404;28;45369;-83
2022/01/20 04:44:00;;;;;;;;;6.67;5.67;;;;;6.21;77.10;102530.97;5075863;28;47258;-83
2022/01/20 04:59:23;;;;;;;;;6.33;3.00;;;;;5.87;75.92;102498.00;5076854;28;45169;-83
2022/01/20 05:01:48;;;;;;;;;11.00;6.67;;;;;5.73;76.16;102490.91;5075757;28;45416;-83
2022/01/20 05:04:14;;;;;;;;;7.00;5.67;;;;;5.65;75.57;102456.16;5075756;28;48371;-83
2022/01/20 05:06:42;;;;;;;;;7.00;6.00;;;;;5.74;75.45;102472.59;5075220;28;45441;-83
2022/01/20 05:09:08;;;;;;;;;6.33;6.00;;;;;5.87;75.56;102484.84;5076987;28;45380;-84
2022/01/20 05:11:36;;;;;;;;;5.00;3.00;;;;;6.19;75.69;102525.59;5075548;28;45592;-83
2022/01/20 05:14:01;;;;;;;;;6.00;5.00;;;;;5.79;75.36;102480.78;5075258;28;47368;-83
2022/01/20 05:16:27;;;;;;;;;5.00;3.00;;;;;5.65;75.47;102445.63;5075572;28;45735;-83
2022/01/20 05:18:52;;;;;;;;;6.00;4.33;;;;;5.70;75.90;102467.91;5075361;28;45275;-83
2022/01/20 05:21:18;;;;;;;;;3.00;3.00;;;;;5.72;74.98;102468.03;5076588;27;45315;-83
2022/01/20 05:23:43;;;;;;;;;6.33;5.00;;;;;5.65;75.24;102475.53;5076499;27;45582;-83
2022/01/20 05:26:09;;;;;;;;;5.67;4.33;;;;;5.88;74.79;102512.06;5075223;28;46083;-83
2022/01/20 05:28:35;;;;;;;;;6.67;3.00;;;;;5.78;75.34;102494.75;5075443;28;45408;-83
2022/01/20 05:31:00;;;;;;;;;6.00;5.00;;;;;5.66;74.77;102464.16;5076453;27;45501;-83
2022/01/20 05:33:26;;;;;;;;;8.67;6.67;;;;;5.86;74.43;102511.06;5076094;27;46318;-83
2022/01/20 05:35:52;;;;;;;;;10.67;6.67;;;;;5.61;74.86;102462.97;5074386;28;45993;-84
2022/01/20 05:38:17;;;;;;;;;5.00;5.00;;;;;5.73;74.43;102504.09;5075354;28;45374;-83
2022/01/20 05:40:43;;;;;;;;;6.00;6.00;;;;;5.41;74.74;102456.34;5076178;28;45409;-83
2022/01/20 05:43:08;;;;;;;;;6.00;6.00;;;;;5.05;74.70;102379.38;5076394;27;46479;-83
2022/01/20 05:45:35;;;;;;;;;5.00;3.00;;;;;5.62;74.87;102487.56;5074807;28;45622;-86
2022/01/20 05:48:10;;;;;;;;;5.00;5.00;;;;;6.24;74.38;102597.06;5075149;28;45259;-87
2022/01/20 05:50:36;;;;;;;;;5.67;5.00;;;;;6.01;74.68;102563.09;5075577;28;45531;-87
2022/01/20 05:53:02;;;;;;;;;8.00;5.00;;;;;5.26;74.38;102423.72;5075122;28;47163;-87
2022/01/20 05:55:28;;;;;;;;;5.00;5.00;;;;;6.13;74.78;102583.16;5075143;28;45418;-86
2022/01/20 05:57:53;;;;;;;;;5.00;5.00;;;;;6.23;74.29;102596.16;5075146;28;45509;-86
2022/01/20 06:00:23;;;;;;;;;7.67;5.67;;;;;5.69;74.24;102508.22;5075708;28;45525;-86
2022/01/20 06:05:32;;;;;;;;;10.00;6.00;;;;;5.88;74.73;102549.88;5076245;28;45456;-86
2022/01/20 06:07:58;;;;;;;;;11.33;6.67;;;;;5.84;74.37;102542.59;5075254;28;45667;-85
2022/01/20 06:10:23;;;;;;;;;9.67;6.00;;;;;5.88;74.78;102551.59;5075051;28;45544;-86
2022/01/20 06:12:49;;;;;;;;;7.33;6.00;;;;;5.41;74.65;102472.13;5075048;28;46908;-86
2022/01/20 06:15:14;;;;;;;;;7.33;6.33;;;;;6.04;75.46;102588.75;5075095;28;45421;-86
2022/01/20 06:17:41;;;;;;;;;7.00;6.00;;;;;6.14;75.46;102603.44;5074773;28;45502;-86
2022/01/20 06:20:08;;;;;;;;;10.00;6.00;;;;;6.10;75.60;102604.94;5075141;28;45501;-86
2022/01/20 06:22:34;;;;;;;;;13.33;8.33;;;;;4.98;75.02;102430.66;5074556;28;47250;-86
2022/01/20 06:24:59;;;;;;;;;9.33;7.33;;;;;5.40;76.04;102522.03;5074747;28;45473;-87
2022/01/20 06:27:25;;;;;;;;;10.33;7.67;;;;;5.59;76.07;102558.44;5074805;28;45318;-86
2022/01/20 06:29:50;;;;;;;;;7.00;6.00;;;;;5.26;76.20;102502.66;5075999;27;45436;-87
2022/01/20 06:32:16;;;;;;;;;9.00;7.67;;;;;5.47;76.38;102551.53;5074705;28;46907;-87
2022/01/20 06:34:41;;;;;;;;;8.33;8.00;;;;;5.25;76.43;102507.03;5074469;28;46379;-87
2022/01/20 06:37:06;;;;;;;;;6.67;6.67;;;;;5.27;75.11;102515.03;5075133;28;45381;-87
2022/01/20 06:39:32;;;;;;;;;10.67;7.00;;;;;5.50;75.67;102546.47;5075262;27;45493;-87
2022/01/20 06:41:57;;;;;;;;;7.00;3.67;;;;;5.48;74.93;102550.75;5076633;27;45896;-87
2022/01/20 06:44:23;;;;;;;;;5.33;5.00;;;;;5.33;75.27;102528.63;5075755;28;45351;-86
2022/01/20 06:46:49;;;;;;;;;8.33;5.00;;;;;5.22;75.05;102508.53;5075358;28;45532;-87
2022/01/20 06:49:17;;;;;;;;;6.67;5.00;;;;;5.47;75.02;102545.34;5077665;28;45438;-87
2022/01/20 06:51:46;;;;;;;;;6.00;6.00;;;;;5.49;75.11;102544.63;5079261;27;45238;-86
2022/01/20 06:54:12;;;;;;;;;7.00;7.00;;;;;5.77;75.48;102591.28;5097721;27;45378;-87
2022/01/20 06:56:38;;;;;;;;;10.67;6.67;;;;;5.86;75.94;102617.34;5078162;28;45456;-87
2022/01/20 06:59:04;;;;;;;;;6.67;6.33;;;;;5.48;75.33;102547.16;5094696;27;45556;-87
2022/01/20 07:01:29;;;;;;;;;8.33;8.33;;;;;5.17;75.48;102513.47;5077213;27;47941;-87
2022/01/20 07:03:55;;;;;;;;;9.00;7.00;;;;;5.59;75.40;102592.69;5077611;28;45590;-87
2022/01/20 07:06:21;;;;;;;;;10.67;7.00;;;;;6.05;75.48;102671.31;5078355;28;45343;-87
2022/01/20 07:08:46;;;;;;;;;6.33;6.33;;;;;5.69;74.97;102620.56;5077941;28;45171;-87
2022/01/20 07:11:11;;;;;;;;;11.33;10.33;;;;;5.37;75.48;102579.75;5094985;27;48292;-87
2022/01/20 07:13:37;;;;;;;;;10.67;7.67;;;;;5.56;75.45;102634.59;5077615;27;45788;-87
2022/01/20 07:16:03;;;;;;;;;6.33;6.33;;;;;5.31;76.18;102596.03;5077912;28;45311;-87
2022/01/20 07:18:28;;;;;;;;;8.67;6.00;;;;;5.56;75.33;102648.66;5078072;27;45526;-87
2022/01/20 07:20:57;;;;;;;;;16.00;11.33;;;;;5.53;76.25;102648.47;5077276;28;46950;-87
2022/01/20 07:23:22;;;;;;;;;8.33;8.33;;;;;5.21;76.12;102589.19;5077464;28;45331;-87
2022/01/20 07:25:48;;;;;;;;;8.33;7.67;;;;;5.31;75.90;102615.34;5077652;28;45334;-87
2022/01/20 07:28:13;;;;;;;;;11.00;8.33;;;;;5.41;75.94;102637.97;5094465;27;45390;-86
2022/01/20 07:30:38;;;;;;;;;7.33;6.00;;;;;5.55;75.96;102686.31;5094425;27;47119;-87
2022/01/20 07:33:05;;;;;;;;;12.00;9.67;;;;;5.61;76.36;102680.56;5077517;28;45721;-86
2022/01/20 07:35:31;;;;;;;;;8.00;6.67;;;;;5.12;76.49;102602.63;5077579;28;45369;-86
2022/01/20 07:37:56;;;;;;;;;11.00;8.67;;;;;5.50;76.43;102662.31;5077372;28;45219;-87
2022/01/20 07:40:39;;;;;;;;;7.67;7.00;;;;;4.96;76.32;102578.66;5077308;28;47384;-86
2022/01/20 07:43:04;;;;;;;;;10.00;10.00;;;;;5.55;76.33;102681.06;5078961;27;45392;-85
2022/01/20 07:45:30;;;;;;;;;9.67;7.67;;;;;5.29;76.42;102622.22;5077044;28;45259;-86
2022/01/20 07:47:55;;;;;;;;;10.00;8.33;;;;;5.28;76.22;102612.50;5077181;28;45349;-86
2022/01/20 07:50:20;;;;;;;;;11.67;9.67;;;;;5.59;75.87;102655.88;5077005;28;47048;-86
2022/01/20 07:52:47;;;;;;;;;9.67;9.67;;;;;5.11;76.17;102558.69;5076974;28;45894;-86
2022/01/20 07:55:13;;;;;;;;;14.00;12.33;;;;;5.66;75.88;102672.19;5077721;27;45305;-87
2022/01/20 07:57:38;;;;;;;;;7.00;5.00;;;;;5.88;76.51;102701.75;5070381;28;45504;-88
2022/01/20 08:00:05;;;;;;;;;10.00;8.33;;;;;5.46;75.96;102612.88;5093082;27;47315;-85
2022/01/20 08:02:32;;;;;;;;;10.00;9.67;;;;;5.92;75.90;102699.44;5068702;27;45440;-87
2022/01/20 08:04:57;;;;;;;;;11.67;9.67;;;;;5.06;75.90;102532.88;5071276;28;45870;-87
2022/01/20 08:07:23;;;;;;;;;10.33;9.00;;;;;5.72;75.78;102661.16;5062455;28;46262;-85
2022/01/20 08:09:54;;;;;;;;;13.00;6.00;;;;;5.56;76.21;102629.34;5058209;27;47423;-86
2022/01/20 08:12:19;;;;;;;;;10.67;9.33;;;;;6.23;76.01;102717.41;5079018;27;45397;-86
2022/01/20 08:14:44;;;;;;;;;11.33;10.00;;;;;5.40;75.63;102578.25;5088388;27;45439;-87
2022/01/20 08:17:10;;;;;;;;;13.00;10.00;;;;;6.32;75.78;102722.38;5065483;28;45290;-87
2022/01/20 08:19:35;;;;;;;;;14.67;12.00;;;;;5.51;75.82;102581.59;5082457;27;47862;-85
2022/01/20 08:22:01;;;;;;;;;12.00;10.67;;;;;5.66;75.60;102595.81;5073143;27;45541;-84
2022/01/20 08:24:26;;;;;;;;;18.67;11.33;;;;;6.44;75.27;102731.13;5062987;27;45771;-85
2022/01/20 08:26:52;;;;;;;;;16.00;14.33;;;;;6.33;75.08;102693.50;5065722;27;45491;-84
2022/01/20 08:29:17;;;;;;;;;10.33;9.33;;;;;5.42;75.25;102552.94;5057808;28;46231;-89
2022/01/20 08:31:43;;;;;;;;;11.00;10.67;;;;;6.27;75.50;102706.25;5070093;28;45300;-84
2022/01/20 08:34:08;;;;;;;;;13.67;11.67;;;;;6.02;75.41;102650.97;5062603;27;45703;-85
2022/01/20 08:36:34;;;;;;;;;11.00;11.00;;;;;5.97;74.84;102633.91;5074092;28;45559;-86
2022/01/20 08:38:59;;;;;;;;;11.33;9.00;;;;;6.20;75.33;102655.66;5064275;28;48013;-83
2022/01/20 08:41:24;;;;;;;;;11.00;10.00;;;;;6.59;74.78;102717.16;5056107;28;45823;-85
2022/01/20 08:43:50;;;;;;;;;12.00;10.00;;;;;5.93;74.68;102610.78;5069363;27;45462;-85
2022/01/20 08:46:21;;;;;;;;;12.00;11.67;;;;;5.82;75.16;102588.97;5069325;27;45386;-85
2022/01/20 08:48:46;;;;;;;;;9.67;7.67;;;;;6.04;74.82;102630.00;5062696;28;47253;-85
2022/01/20 08:51:12;;;;;;;;;11.33;10.33;;;;;6.48;74.84;102719.06;5067599;28;45792;-85
2022/01/20 08:53:38;;;;;;;;;6.00;5.00;;;;;6.32;74.46;102685.47;5069718;27;45778;-84
2022/01/20 08:56:03;;;;;;;;;10.67;10.67;;;;;5.97;75.04;102610.19;5067378;27;45560;-85
2022/01/20 08:58:29;;;;;;;;;14.33;11.00;;;;;6.10;74.94;102631.28;5071731;28;45442;-88
2022/01/20 09:00:55;;;;;;;;;11.00;11.00;;;;;6.84;74.67;102751.34;5057894;28;45505;-86
2022/01/20 09:03:22;;;;;;;;;15.33;11.00;;;;;6.38;74.34;102667.41;5074790;28;45375;-88
2022/01/20 09:06:03;;;;;;;;;11.33;11.33;;;;;5.92;74.40;102598.41;5072926;27;45853;-88
2022/01/20 09:08:28;;;;;;;;;14.33;13.33;;;;;5.82;74.58;102592.53;5065412;27;47121;-86
2022/01/20 09:10:54;;;;;;;;;12.00;11.33;;;;;6.75;75.40;102753.34;5053732;28;46478;-86
2022/01/20 09:16:04;;;;;;;;;12.33;10.00;;;;;6.42;74.92;102666.81;5059780;28;45473;-88
2022/01/20 09:18:30;;;;;;;;;13.67;12.33;;;;;6.28;74.15;102642.16;5064716;27;47128;-89
2022/01/20 09:20:55;;;;;;;;;16.00;12.67;;;;;5.84;74.45;102555.75;5071882;28;45461;-90
2022/01/20 09:23:20;;;;;;;;;21.00;11.67;;;;;6.48;74.49;102661.97;5086588;27;45829;-88
2022/01/20 09:25:49;;;;;;;;;12.00;9.33;;;;;6.79;74.41;102722.03;5057079;28;45394;-89
2022/01/20 09:28:15;;;;;;;;;12.33;11.00;;;;;6.76;74.06;102736.72;5073689;27;47872;-90
2022/01/20 09:30:41;;;;;;;;;14.67;11.00;;;;;5.98;74.39;102612.94;5060466;28;45533;-88
2022/01/20 09:35:37;;;;;;;;;12.67;11.33;;;;;6.70;74.13;102737.22;5056452;27;45404;-88
2022/01/20 09:38:04;;;;;;;;;18.33;14.33;;;;;6.86;74.57;102765.53;5062959;27;48119;-90
2022/01/20 09:40:32;;;;;;;;;15.00;15.00;;;;;6.84;74.72;102752.25;5073980;27;45549;-89
2022/01/20 09:42:58;;;;;;;;;17.33;16.00;;;;;6.65;74.29;102707.94;5057903;28;45516;-88
2022/01/20 09:45:23;;;;;;;;;17.00;11.33;;;;;6.34;74.34;102673.28;5059284;28;46057;-86
2022/01/20 09:47:49;;;;;;;;;19.33;13.33;;;;;6.98;74.52;102760.19;5058885;28;48275;-86
2022/01/20 09:50:19;;;;;;;;;18.33;14.33;;;;;6.93;74.50;102735.19;5063116;27;46583;-89
2022/01/20 09:52:49;;;;;;;;;12.00;11.33;;;;;6.72;74.29;102692.50;5060900;28;45505;-89
2022/01/20 09:55:15;;;;;;;;;13.67;11.00;;;;;7.20;74.52;102788.88;5079919;27;45546;-89
2022/01/20 09:57:42;;;;;;;;;14.33;11.00;;;;;6.71;74.77;102686.31;5058133;28;47038;-85
2022/01/20 10:00:11;;;;;;;;;4.33;3.00;;;;;6.55;74.77;102652.72;5066923;27;45706;-85
2022/01/20 10:02:50;;;;;;;;;16.00;13.33;;;;;6.91;74.98;102708.72;5056728;27;45452;-83
2022/01/20 10:05:26;;;;;;;;;14.33;11.00;;;;;6.21;74.49;102604.78;5062981;28;45830;-81
2022/01/20 10:07:52;;;;;;;;;14.33;11.00;;;;;6.45;74.69;102624.81;5058708;28;47154;-83
2022/01/20 10:10:17;;;;;;;;;11.33;10.00;;;;;7.21;74.29;102777.50;5054099;28;45929;-87
2022/01/20 10:12:42;;;;;;;;;12.67;11.67;;;;;6.90;74.38;102720.06;5061719;27;45450;-82
2022/01/20 10:15:11;;;;;;;;;12.00;12.00;;;;;6.65;74.69;102691.16;5058565;28;45877;-86
2022/01/20 10:17:37;;;;;;;;;16.33;11.00;;;;;6.65;75.13;102678.91;5059470;28;45677;-84
2022/01/20 10:20:07;;;;;;;;;12.33;10.00;;;;;7.41;74.84;102806.94;5063839;28;45585;-86
2022/01/20 10:22:36;;;;;;;;;8.33;4.00;;;;;6.91;74.33;102723.66;5063660;27;45784;-83
2022/01/20 10:25:08;;;;;;;;;13.67;10.00;;;;;7.42;74.40;102807.03;5056939;27;45667;-84
2022/01/20 10:27:48;;;;;;;;;13.33;13.33;;;;;6.96;74.06;102753.88;5063641;28;47185;-84
2022/01/20 10:30:14;;;;;;;;;17.67;13.67;;;;;7.05;74.72;102757.13;5072121;27;45595;-84
2022/01/20 10:32:46;;;;;;;;;17.33;13.67;;;;;7.14;74.00;102755.06;5085899;27;45509;-85
2022/01/20 10:35:14;;;;;;;;;12.00;11.33;;;;;7.50;73.55;102842.78;5061010;27;45450;-82
2022/01/20 10:37:51;;;;;;;;;11.67;9.00;;;;;7.22;73.92;102777.59;5071935;28;47926;-85
2022/01/20 10:40:17;;;;;;;;;12.00;11.00;;;;;7.28;73.68;102785.00;5061441;28;45508;-86
2022/01/20 10:42:45;;;;;;;;;11.33;10.00;;;;;7.16;74.51;102771.03;5067149;28;45474;-84
2022/01/20 10:45:29;;;;;;;;;11.33;11.00;;;;;6.78;73.36;102696.44;5063907;27;46477;-85
2022/01/20 10:47:57;;;;;;;;;14.00;10.33;;;;;7.02;73.63;102752.56;5073768;27;47450;-85
2022/01/20 10:50:36;;;;;;;;;11.00;8.67;;;;;7.67;73.76;102838.59;5072064;28;45461;-86
2022/01/20 10:53:01;;;;;;;;;12.67;12.67;;;;;7.71;73.34;102840.63;5062408;28;45521;-85
2022/01/20 10:55:33;;;;;;;;;13.33;10.67;;;;;6.99;72.84;102714.47;5068399;27;45473;-83
2022/01/20 10:58:17;;;;;;;;;10.33;9.33;;;;;7.31;73.50;102774.69;5068898;28;45449;-84
2022/01/20 11:00:46;;;;;;;;;9.00;9.00;;;;;6.99;72.72;102696.00;5061817;27;45692;-86
2022/01/20 11:03:13;;;;;;;;;13.33;9.67;;;;;6.89;72.91;102691.84;5063293;28;45709;-85
2022/01/20 11:05:40;;;;;;;;;12.67;9.00;;;;;7.70;72.74;102840.53;5061569;27;45620;-81
2022/01/20 11:08:06;;;;;;;;;13.00;10.33;;;;;7.50;73.13;102794.34;5064858;28;45895;-80
2022/01/20 11:10:32;;;;;;;;;13.67;10.67;;;;;7.42;72.93;102788.56;5055294;28;45602;-82
2022/01/20 11:12:58;;;;;;;;;11.00;9.00;;;;;7.11;73.30;102724.94;5062028;28;45512;-83
2022/01/20 11:15:26;;;;;;;;;17.00;9.00;;;;;7.30;72.88;102769.25;5064897;27;45750;-80
2022/01/20 11:17:56;;;;;;;;;7.00;7.00;;;;;7.49;73.30;102798.69;5058163;27;46501;-83
2022/01/20 11:20:26;;;;;;;;;11.33;8.00;;;;;7.76;71.80;102832.06;5080491;27;45606;-84
2022/01/20 11:22:59;;;;;;;;;12.00;7.00;;;;;7.81;72.05;102823.63;5065149;28;45538;-82
2022/01/20 11:25:28;;;;;;;;;6.33;6.33;;;;;7.96;72.09;102825.41;5070337;28;45725;-83
2022/01/20 11:28:02;;;;;;;;;10.67;6.33;;;;;8.01;71.39;102814.31;5063131;27;45927;-85
2022/01/20 11:30:39;;;;;;;;;8.67;4.67;;;;;7.77;71.09;102763.47;5058753;28;45493;-85
2022/01/20 11:33:11;;;;;;;;;7.00;3.00;;;;;7.90;71.30;102776.66;5065489;28;45512;-85
2022/01/20 11:35:38;;;;;;;;;11.33;7.33;;;;;8.24;70.42;102807.81;5060816;28;45452;-84
2022/01/20 11:38:04;;;;;;;;;8.33;6.00;;;;;7.62;68.75;102678.88;5069354;27;46360;-85
2022/01/20 11:40:29;;;;;;;;;7.67;6.00;;;;;8.42;69.74;102809.75;5061691;28;45971;-82
2022/01/20 11:43:04;;;;;;;;;4.67;3.00;;;;;8.50;69.00;102795.28;5066305;27;45697;-83
2022/01/20 11:45:32;;;;;;;;;3.00;3.00;;;;;8.10;68.74;102707.31;5065290;28;45391;-85
2022/01/20 11:48:09;;;;;;;;;8.67;6.33;;;;;8.57;68.60;102805.41;5065929;27;45698;-85
2022/01/20 11:50:35;;;;;;;;;8.00;5.33;;;;;8.00;67.36;102721.69;5074045;27;45469;-83
2022/01/20 11:53:10;;;;;;;;;7.67;6.33;;;;;7.96;67.67;102720.63;5063452;27;45493;-83
2022/01/20 11:55:46;;;;;;;;;9.00;6.00;;;;;8.26;67.89;102762.94;5076551;27;45760;-83
2022/01/20 11:58:13;;;;;;;;;9.67;7.00;;;;;8.39;67.30;102791.06;5057096;28;47110;-83
2022/01/20 12:00:39;;;;;;;;;12.67;7.00;;;;;7.74;67.31;102673.44;5068441;27;45725;-82
2022/01/20 12:03:15;;;;;;;;;4.00;1.33;;;;;8.56;66.68;102807.97;5069275;27;45436;-83
2022/01/20 12:05:40;;;;;;;;;7.00;6.00;;;;;8.03;66.69;102746.59;5060254;28;45955;-82
2022/01/20 12:08:20;;;;;;;;;7.00;6.00;;;;;7.88;67.56;102712.19;5063808;27;48302;-81
2022/01/20 12:11:05;;;;;;;;;6.67;3.00;;;;;7.89;66.79;102737.81;5060514;27;45482;-83
2022/01/20 12:13:31;;;;;;;;;5.67;3.00;;;;;8.32;66.10;102807.38;5062747;28;45440;-83
2022/01/20 12:16:01;;;;;;;;;6.33;4.00;;;;;7.97;66.48;102750.59;5061346;27;45572;-84
2022/01/20 12:18:28;;;;;;;;;5.33;5.33;;;;;7.68;66.58;102691.59;5061063;28;45614;-83
2022/01/20 12:20:54;;;;;;;;;3.33;3.33;;;;;7.73;67.10;102692.75;5065980;27;45479;-82
2022/01/20 12:23:20;;;;;;;;;7.33;6.00;;;;;8.48;66.56;102807.53;5063851;27;46247;-82
2022/01/20 12:25:47;;;;;;;;;4.00;4.00;;;;;8.18;65.90;102749.25;5065855;27;45529;-83
2022/01/20 12:28:14;;;;;;;;;4.00;4.00;;;;;7.62;66.76;102651.56;5070720;28;48405;-83
2022/01/20 12:30:47;;;;;;;;;7.00;6.00;;;;;8.30;65.91;102774.59;5060616;28;45914;-83